Pagrindinis puslapis
METAR-TAF:

METAR-TAF

Oro uostai :

Deering, Aliaska, Jungtinės Amerikos Valstijos

platuma: 66-05N, ilguma: 162-45W, Aukštis: 5 m

Dabartinis oras

Ataskaita buvo paskelbta 1 valandą ir 6 minutes, ne 18:53 UTC
Vėjas 8 kt iš Pietų/Pietvakarių
Temperatūra -7°C
Drėgmė 93%
Slėgis 1021 hPa
Matomumas: 16.1 km
Išsisklaidę debesys ne aukštis 1000 ft

METAR: PADE 281853Z AUTO 20008KT 10SM SCT010 M07/M08 A3016 RMK AO2 SLP212 T10721078 TSNO

Laikas: 11:59 (19:59 UTC)


TAF: trūkstamas

Orai ataskaitas ir orų prognozės (METAR, TAF).

turimą stotys yra geltonos ir raudonos taškus žemėlapyje.

Perkelti pele per norėdami pamatyti stoties vardą.

Tada spustelėkite, norėdami matyti oro stebėjimo ir prognozės.

Norėdami pakeisti žemėlapį: spustelėkite ant žalios mygtukų su juodo kryžiaus žemyn,; žalią mygtuką su brūkšneliu, jei norite nutolinti; arba žalių rodyklių gretimoms žemėlapius.


METAR-TAF: